Time;durP1;ratioP1;P1;durP2;ratioP2;P2;SDS_P1;SDS_P2;PMS_P1;PMS_P2;Temp;Humidity;BMP_temperature;BMP_pressure;BME280_temperature;BME280_humidity;BME280_pressure;Samples;Min_cycle;Max_cycle;Signal;HPM_P1;HPM_P2
2023/12/02 00:02:00;;;;;;;27.15;9.60;;;-1.30;99.90;;;;;;4976834;28;20043;-67
2023/12/02 00:04:25;;;;;;;18.20;7.15;;;-1.40;99.90;;;;;;4991006;28;20484;-67
2023/12/02 00:06:51;;;;;;;21.58;8.27;;;-1.50;99.90;;;;;;4982148;28;20081;-67
2023/12/02 00:09:17;;;;;;;17.92;6.80;;;-1.50;99.90;;;;;;4987422;28;20406;-67
2023/12/02 00:11:43;;;;;;;16.42;7.30;;;-1.50;99.90;;;;;;4977927;28;20058;-67
2023/12/02 00:14:09;;;;;;;21.92;7.53;;;-1.50;99.90;;;;;;4988284;28;20043;-67
2023/12/02 00:16:34;;;;;;;18.42;8.13;;;-1.60;99.90;;;;;;4979234;28;20038;-67
2023/12/02 00:19:00;;;;;;;17.90;7.63;;;-1.70;99.90;;;;;;4987907;28;20031;-67
2023/12/02 00:21:26;;;;;;;20.67;7.30;;;-1.70;99.90;;;;;;4981429;28;20057;-67
2023/12/02 00:23:52;;;;;;;20.67;8.30;;;-1.70;99.90;;;;;;4988123;28;20034;-67
2023/12/02 00:26:18;;;;;;;14.88;6.75;;;-1.70;99.90;;;;;;4982760;28;20720;-67
2023/12/02 00:28:54;;;;;;;20.52;7.10;;;-1.70;99.90;;;;;;4985778;28;20077;-67
2023/12/02 00:31:20;;;;;;;17.65;6.85;;;-1.70;99.90;;;;;;4982913;28;20437;-67
2023/12/02 00:33:46;;;;;;;15.20;6.43;;;-1.70;99.90;;;;;;4986215;28;20073;-67
2023/12/02 00:36:12;;;;;;;16.75;7.07;;;-1.80;99.90;;;;;;4982284;28;20070;-67
2023/12/02 00:38:38;;;;;;;15.50;6.18;;;-1.80;99.90;;;;;;4989704;28;20053;-67
2023/12/02 00:41:04;;;;;;;19.33;7.68;;;-1.80;99.90;;;;;;4983835;28;20914;-67
2023/12/02 00:43:30;;;;;;;16.33;7.07;;;-1.80;99.90;;;;;;4986694;28;20038;-67
2023/12/02 00:45:55;;;;;;;15.88;6.63;;;-1.80;99.90;;;;;;4988819;28;20045;-67
2023/12/02 00:48:21;;;;;;;18.73;7.40;;;-1.80;99.90;;;;;;4986758;28;20517;-67
2023/12/02 00:50:47;;;;;;;19.25;7.60;;;-1.80;99.90;;;;;;4986421;28;20041;-67
2023/12/02 00:53:13;;;;;;;17.08;6.55;;;-1.80;99.90;;;;;;4989643;28;20118;-67
2023/12/02 00:55:39;;;;;;;17.02;7.07;;;-1.70;99.90;;;;;;4987833;28;20090;-66
2023/12/02 00:58:05;;;;;;;18.73;8.02;;;-1.70;99.90;;;;;;4981067;28;20061;-67
2023/12/02 01:00:30;;;;;;;16.50;6.90;;;-1.70;99.90;;;;;;4989908;28;20037;-67
2023/12/02 01:02:56;;;;;;;14.95;6.20;;;-1.80;99.90;;;;;;4979065;28;20047;-67
2023/12/02 01:05:22;;;;;;;17.88;6.38;;;-1.80;99.90;;;;;;4991152;28;20045;-67
2023/12/02 01:07:48;;;;;;;17.48;6.95;;;-1.80;99.90;;;;;;4979302;28;20045;-67
2023/12/02 01:10:15;;;;;;;17.27;6.47;;;-1.80;99.90;;;;;;4991482;28;20074;-67
2023/12/02 01:12:40;;;;;;;14.10;5.93;;;-1.80;99.90;;;;;;4980781;28;20046;-67
2023/12/02 01:15:07;;;;;;;15.20;6.57;;;-1.80;99.90;;;;;;4989979;28;20559;-67
2023/12/02 01:17:32;;;;;;;14.32;6.20;;;-1.80;99.90;;;;;;4981058;28;20524;-67
2023/12/02 01:19:59;;;;;;;14.98;6.13;;;-1.80;99.90;;;;;;4988349;28;20038;-67
2023/12/02 01:22:25;;;;;;;14.07;6.07;;;-1.90;99.90;;;;;;4983990;28;20108;-67
2023/12/02 01:24:51;;;;;;;16.42;6.78;;;-1.90;99.90;;;;;;4993893;28;20490;-67
2023/12/02 01:27:17;;;;;;;19.15;7.47;;;-1.90;99.90;;;;;;4992054;28;20410;-67
2023/12/02 01:29:42;;;;;;;13.93;5.72;;;-1.90;99.90;;;;;;4988606;28;20403;-67
2023/12/02 01:32:08;;;;;;;14.95;6.07;;;-1.90;99.90;;;;;;4990318;28;20038;-67
2023/12/02 01:34:34;;;;;;;15.57;5.00;;;-1.90;99.90;;;;;;4988746;28;20881;-67
2023/12/02 01:37:00;;;;;;;14.30;5.38;;;-1.90;99.90;;;;;;4983161;28;20033;-66
2023/12/02 01:39:26;;;;;;;12.68;5.32;;;-1.90;99.90;;;;;;4988809;28;20034;-67
2023/12/02 01:41:52;;;;;;;16.17;5.28;;;-1.90;99.90;;;;;;4983019;28;20035;-67
2023/12/02 01:44:18;;;;;;;13.40;5.82;;;-2.00;99.90;;;;;;4986017;28;20037;-66
2023/12/02 01:46:44;;;;;;;12.77;6.25;;;-2.10;99.90;;;;;;4982844;28;20058;-66
2023/12/02 01:49:10;;;;;;;11.57;4.70;;;-2.10;99.90;;;;;;4985537;28;20038;-67
2023/12/02 01:51:37;;;;;;;15.57;5.70;;;-2.10;99.90;;;;;;4985853;28;20058;-67
2023/12/02 01:54:03;;;;;;;11.27;5.32;;;-2.00;99.90;;;;;;4985676;28;20069;-67
2023/12/02 01:56:29;;;;;;;11.73;4.63;;;-2.00;99.90;;;;;;4988195;28;20038;-67
2023/12/02 01:58:56;;;;;;;11.93;4.68;;;-2.20;99.90;;;;;;4983830;28;20039;-67
2023/12/02 02:01:21;;;;;;;13.77;4.97;;;-2.20;99.90;;;;;;4995256;28;20030;-67
2023/12/02 02:03:49;;;;;;;11.27;5.07;;;-2.30;99.90;;;;;;4990518;28;20125;-67
2023/12/02 02:06:14;;;;;;;12.38;5.65;;;-2.20;99.90;;;;;;4984929;28;20517;-67
2023/12/02 02:08:40;;;;;;;14.05;5.03;;;-2.20;99.90;;;;;;4983815;28;20038;-67
2023/12/02 02:11:06;;;;;;;15.00;5.05;;;-2.10;99.90;;;;;;4988801;28;20042;-67
2023/12/02 02:13:33;;;;;;;13.43;5.50;;;-2.10;99.90;;;;;;4980014;28;20034;-67
2023/12/02 02:15:59;;;;;;;13.60;5.32;;;-2.10;99.90;;;;;;4988273;28;20046;-66
2023/12/02 02:18:25;;;;;;;11.63;5.30;;;-2.10;99.90;;;;;;4981664;28;20081;-67
2023/12/02 02:20:54;;;;;;;11.98;5.50;;;-2.00;99.90;;;;;;4981292;28;20078;-67
2023/12/02 02:23:22;;;;;;;10.30;4.80;;;-2.00;99.90;;;;;;4981582;28;20027;-67
2023/12/02 02:25:50;;;;;;;10.13;4.47;;;-1.90;99.90;;;;;;4989007;28;20042;-66
2023/12/02 02:28:27;;;;;;;13.68;4.30;;;-1.90;99.90;;;;;;4982289;28;20466;-67
2023/12/02 02:30:54;;;;;;;8.77;4.10;;;-2.00;99.90;;;;;;4988183;28;20030;-67
2023/12/02 02:33:20;;;;;;;7.72;3.67;;;-1.90;99.90;;;;;;4983034;28;20038;-67
2023/12/02 02:35:47;;;;;;;10.32;4.05;;;-1.90;99.90;;;;;;4986402;28;20058;-67
2023/12/02 02:38:13;;;;;;;8.32;4.47;;;-2.00;99.90;;;;;;4982821;28;20034;-67
2023/12/02 02:40:39;;;;;;;14.45;4.95;;;-1.90;99.90;;;;;;4988768;28;20034;-67
2023/12/02 02:43:05;;;;;;;8.98;4.57;;;-1.90;99.90;;;;;;4981340;28;20090;-67
2023/12/02 02:45:31;;;;;;;7.57;4.05;;;-1.90;99.90;;;;;;4987189;28;20038;-67
2023/12/02 02:47:58;;;;;;;10.32;4.38;;;-1.90;99.90;;;;;;4987658;28;20050;-67
2023/12/02 02:50:23;;;;;;;8.88;4.13;;;-1.90;99.90;;;;;;4986815;28;20038;-67
2023/12/02 02:52:49;;;;;;;10.13;4.32;;;-1.90;99.90;;;;;;4982322;28;20037;-66
2023/12/02 02:55:15;;;;;;;11.95;4.93;;;-1.90;99.90;;;;;;4983722;28;20095;-67
2023/12/02 02:57:41;;;;;;;10.20;5.43;;;-1.90;99.90;;;;;;4988396;28;20048;-67
2023/12/02 03:00:11;;;;;;;10.93;5.20;;;-2.00;99.90;;;;;;4986543;28;20062;-67
2023/12/02 03:02:37;;;;;;;11.23;4.25;;;-1.90;99.90;;;;;;4984126;28;20073;-67
2023/12/02 03:05:04;;;;;;;11.07;5.05;;;-1.90;99.90;;;;;;4983891;28;20034;-67
2023/12/02 03:07:31;;;;;;;12.88;4.72;;;-1.90;99.90;;;;;;4986071;28;20399;-67
2023/12/02 03:09:57;;;;;;;13.35;5.18;;;-1.90;99.90;;;;;;4982591;28;20037;-67
2023/12/02 03:12:24;;;;;;;12.77;4.80;;;-1.90;99.90;;;;;;4986954;28;20048;-67
2023/12/02 03:14:51;;;;;;;10.35;4.32;;;-1.90;99.90;;;;;;4988174;28;20041;-67
2023/12/02 03:17:16;;;;;;;11.27;5.15;;;-1.90;99.90;;;;;;4987164;28;20050;-66
2023/12/02 03:19:43;;;;;;;9.45;4.60;;;-1.90;99.90;;;;;;4983100;28;20034;-67
2023/12/02 03:22:08;;;;;;;16.65;5.95;;;-2.00;99.90;;;;;;4987083;28;20070;-67
2023/12/02 03:24:35;;;;;;;13.45;4.40;;;-2.00;99.90;;;;;;4983312;28;20088;-67
2023/12/02 03:27:02;;;;;;;14.65;5.75;;;-2.10;99.90;;;;;;4985538;28;20045;-67
2023/12/02 03:29:28;;;;;;;16.08;6.22;;;-2.10;99.90;;;;;;4979602;28;20057;-67
2023/12/02 03:31:54;;;;;;;13.52;5.15;;;-2.10;99.90;;;;;;4980879;28;20490;-67
2023/12/02 03:34:20;;;;;;;16.63;5.70;;;-2.10;99.90;;;;;;4979535;28;20053;-67
2023/12/02 03:36:46;;;;;;;17.30;5.75;;;-2.10;99.90;;;;;;4983777;28;20056;-67
2023/12/02 03:39:15;;;;;;;13.88;5.15;;;-2.20;99.90;;;;;;4980098;28;20100;-67
2023/12/02 03:41:42;;;;;;;13.60;5.95;;;-2.20;99.90;;;;;;4984918;28;20064;-67
2023/12/02 03:44:09;;;;;;;11.70;4.90;;;-2.20;99.90;;;;;;4979495;28;20038;-67
2023/12/02 03:46:35;;;;;;;13.25;5.75;;;-2.20;99.90;;;;;;4985545;28;20752;-66
2023/12/02 03:49:01;;;;;;;18.05;6.30;;;-2.20;99.90;;;;;;4979795;28;20045;-67
2023/12/02 03:51:27;;;;;;;11.70;5.25;;;-2.20;99.90;;;;;;4985963;28;20029;-67
2023/12/02 03:53:53;;;;;;;12.60;5.03;;;-2.20;99.90;;;;;;4980130;28;20062;-67
2023/12/02 03:56:20;;;;;;;11.98;4.70;;;-2.20;99.90;;;;;;4982092;28;20855;-67
2023/12/02 03:58:46;;;;;;;13.25;5.38;;;-2.30;99.90;;;;;;4980408;28;20069;-67
2023/12/02 04:01:13;;;;;;;14.68;5.65;;;-2.30;99.90;;;;;;4984643;28;20546;-66
2023/12/02 04:03:39;;;;;;;11.63;5.25;;;-2.30;99.90;;;;;;4980539;28;20466;-67
2023/12/02 04:06:05;;;;;;;12.75;4.40;;;-2.20;99.90;;;;;;4984209;28;20125;-67
2023/12/02 04:08:34;;;;;;;11.95;4.60;;;-2.20;99.90;;;;;;4984332;28;20108;-67
2023/12/02 04:11:00;;;;;;;11.43;4.90;;;-2.20;99.90;;;;;;4982709;28;20038;-67
2023/12/02 04:13:26;;;;;;;12.88;4.55;;;-2.20;99.90;;;;;;4985180;28;20068;-67
2023/12/02 04:15:52;;;;;;;9.50;4.60;;;-2.30;99.90;;;;;;4980792;28;20034;-67
2023/12/02 04:18:17;;;;;;;12.02;4.93;;;-2.30;99.90;;;;;;4988505;28;20777;-67
2023/12/02 04:20:43;;;;;;;14.55;5.15;;;-2.30;99.90;;;;;;4982339;28;20034;-67
2023/12/02 04:23:09;;;;;;;13.45;5.25;;;-2.20;99.90;;;;;;4984063;28;20526;-67
2023/12/02 04:25:37;;;;;;;12.07;5.22;;;-2.20;99.90;;;;;;4986866;28;20125;-67
2023/12/02 04:28:03;;;;;;;12.90;5.18;;;-2.20;99.90;;;;;;4999241;28;20037;-67
2023/12/02 04:30:29;;;;;;;12.43;4.60;;;-2.20;99.90;;;;;;4991100;28;20034;-67
2023/12/02 04:32:54;;;;;;;10.95;4.95;;;-2.20;99.90;;;;;;4994528;28;20037;-66
2023/12/02 04:35:20;;;;;;;15.65;5.57;;;-2.20;99.90;;;;;;4987463;28;20126;-67
2023/12/02 04:37:46;;;;;;;10.07;4.18;;;-2.30;99.90;;;;;;4994955;28;20036;-67
2023/12/02 04:40:12;;;;;;;11.88;4.68;;;-2.30;99.90;;;;;;4985215;28;20526;-66
2023/12/02 04:42:39;;;;;;;11.00;4.95;;;-2.20;99.90;;;;;;4991896;28;20031;-66
2023/12/02 04:45:06;;;;;;;11.73;4.00;;;-2.10;99.90;;;;;;4983075;28;20157;-67
2023/12/02 04:47:32;;;;;;;6.85;2.90;;;-2.10;99.90;;;;;;4993348;28;20514;-67
2023/12/02 04:49:57;;;;;;;10.63;3.90;;;-2.00;99.90;;;;;;4981956;28;20038;-66
2023/12/02 04:52:23;;;;;;;10.88;3.88;;;-1.90;99.90;;;;;;4994388;28;20117;-67
2023/12/02 04:54:49;;;;;;;11.23;4.00;;;-1.90;99.90;;;;;;4982479;28;20396;-66
2023/12/02 04:57:15;;;;;;;8.90;3.97;;;-1.90;99.90;;;;;;4987658;28;20038;-67
2023/12/02 04:59:41;;;;;;;10.65;3.95;;;-1.90;99.90;;;;;;4983811;28;20450;-66
2023/12/02 05:02:07;;;;;;;7.93;3.72;;;-1.90;99.90;;;;;;4986228;28;20069;-67
2023/12/02 05:04:33;;;;;;;7.95;3.58;;;-1.90;99.90;;;;;;5000876;28;20038;-67
2023/12/02 05:06:59;;;;;;;12.27;4.15;;;-1.90;99.90;;;;;;4990264;28;20042;-67
2023/12/02 05:09:24;;;;;;;8.70;4.13;;;-1.90;99.90;;;;;;4987546;28;20499;-67
2023/12/02 05:11:51;;;;;;;7.82;3.22;;;-1.90;99.90;;;;;;4983290;28;20044;-67
2023/12/02 05:14:17;;;;;;;7.78;3.03;;;-1.80;99.90;;;;;;4988104;28;20079;-67
2023/12/02 05:16:43;;;;;;;9.65;3.95;;;-1.80;99.90;;;;;;4991213;28;20704;-67
2023/12/02 05:19:09;;;;;;;7.03;3.15;;;-1.80;99.90;;;;;;4995021;28;20648;-67
2023/12/02 05:21:39;;;;;;;10.93;3.70;;;-1.80;99.90;;;;;;4984272;28;20044;-67
2023/12/02 05:24:05;;;;;;;7.68;2.83;;;-1.80;99.90;;;;;;4987512;28;20145;-67
2023/12/02 05:26:31;;;;;;;6.22;3.60;;;-1.80;99.90;;;;;;4984247;28;20088;-67
2023/12/02 05:28:59;;;;;;;8.48;3.58;;;-1.80;99.90;;;;;;4984925;28;20100;-67
2023/12/02 05:31:25;;;;;;;6.00;2.78;;;-1.80;99.90;;;;;;4987146;28;20046;-67
2023/12/02 05:33:51;;;;;;;6.97;3.40;;;-1.80;99.90;;;;;;4986222;28;20038;-67
2023/12/02 05:36:17;;;;;;;7.35;3.75;;;-1.80;99.90;;;;;;4983037;28;20029;-67
2023/12/02 05:38:43;;;;;;;7.03;2.83;;;-1.90;99.90;;;;;;4988892;28;20037;-67
2023/12/02 05:41:09;;;;;;;8.07;3.13;;;-1.90;99.90;;;;;;4982601;28;20027;-67
2023/12/02 05:43:35;;;;;;;8.90;3.10;;;-1.90;99.90;;;;;;4990985;28;20038;-67
2023/12/02 05:46:01;;;;;;;10.68;3.35;;;-1.80;99.90;;;;;;4990309;28;20034;-67
2023/12/02 05:48:26;;;;;;;6.88;3.13;;;-1.80;99.90;;;;;;4992073;28;20052;-66
2023/12/02 05:50:52;;;;;;;7.35;3.13;;;-1.90;99.90;;;;;;4980304;28;20051;-67
2023/12/02 05:53:18;;;;;;;8.05;3.55;;;-2.00;99.90;;;;;;4992195;28;20494;-66
2023/12/02 05:55:44;;;;;;;7.82;3.13;;;-2.00;99.90;;;;;;4981238;28;20038;-67
2023/12/02 05:58:10;;;;;;;7.70;3.13;;;-2.00;99.90;;;;;;4989213;28;20050;-67
2023/12/02 06:00:36;;;;;;;8.63;3.28;;;-2.00;99.90;;;;;;4981058;28;20038;-67
2023/12/02 06:03:03;;;;;;;6.28;3.35;;;-2.00;99.90;;;;;;4989814;28;20034;-67
2023/12/02 06:05:29;;;;;;;7.93;3.08;;;-2.00;99.90;;;;;;4984753;28;20066;-67
2023/12/02 06:07:54;;;;;;;4.68;2.70;;;-1.90;99.90;;;;;;4988090;28;20752;-67
2023/12/02 06:10:21;;;;;;;8.13;3.20;;;-1.90;99.90;;;;;;4985710;28;20096;-67
2023/12/02 06:12:47;;;;;;;10.30;3.28;;;-1.90;99.90;;;;;;4982915;28;20076;-67
2023/12/02 06:15:13;;;;;;;6.75;2.88;;;-1.80;99.90;;;;;;4986469;28;20031;-67
2023/12/02 06:17:39;;;;;;;7.15;3.15;;;-1.80;99.90;;;;;;4982380;28;20850;-67
2023/12/02 06:20:06;;;;;;;9.13;3.80;;;-1.80;99.90;;;;;;4987160;28;20057;-67
2023/12/02 06:22:35;;;;;;;9.48;4.13;;;-1.80;99.90;;;;;;4982589;28;20469;-67
2023/12/02 06:25:02;;;;;;;14.02;4.65;;;-1.80;99.90;;;;;;4982158;28;20027;-67
2023/12/02 06:27:28;;;;;;;12.85;5.35;;;-1.70;99.90;;;;;;4982832;28;20037;-67
2023/12/02 06:29:53;;;;;;;14.93;6.60;;;-1.70;99.90;;;;;;4983730;28;20506;-67
2023/12/02 06:32:19;;;;;;;13.48;8.18;;;-1.70;99.90;;;;;;4983398;28;20064;-67
2023/12/02 06:34:45;;;;;;;10.65;5.93;;;-1.70;99.90;;;;;;4986053;28;20506;-67
2023/12/02 06:37:11;;;;;;;14.52;8.60;;;-1.70;99.90;;;;;;4987892;28;20038;-67
2023/12/02 06:39:37;;;;;;;12.07;6.05;;;-1.60;99.90;;;;;;4987339;28;20073;-67
2023/12/02 06:42:03;;;;;;;10.50;5.72;;;-1.60;99.90;;;;;;4979140;28;20026;-67
2023/12/02 06:44:29;;;;;;;11.10;5.00;;;-1.60;99.90;;;;;;4990883;28;20118;-67
2023/12/02 06:46:55;;;;;;;11.48;4.80;;;-1.60;99.90;;;;;;4977684;28;20130;-67
2023/12/02 06:49:21;;;;;;;13.25;6.05;;;-1.50;99.90;;;;;;4990782;28;20068;-67
2023/12/02 06:51:46;;;;;;;11.75;5.28;;;-1.50;99.90;;;;;;4979149;28;20038;-67
2023/12/02 06:54:12;;;;;;;10.73;5.15;;;-1.50;99.90;;;;;;4990354;28;20039;-66
2023/12/02 06:56:38;;;;;;;13.15;5.50;;;-1.50;99.90;;;;;;4980117;28;20040;-67
2023/12/02 06:59:04;;;;;;;11.93;4.88;;;-1.50;99.90;;;;;;4988694;28;20050;-68
2023/12/02 07:01:31;;;;;;;12.35;4.43;;;-1.40;99.90;;;;;;4988294;28;20035;-67
2023/12/02 07:03:59;;;;;;;10.70;3.90;;;-1.50;99.90;;;;;;4986723;28;20030;-67
2023/12/02 07:06:26;;;;;;;14.43;5.30;;;-1.50;99.90;;;;;;4989847;28;20712;-66
2023/12/02 07:08:53;;;;;;;11.88;4.63;;;-1.50;99.90;;;;;;4986457;28;20125;-67
2023/12/02 07:11:19;;;;;;;14.15;4.25;;;-1.40;99.90;;;;;;4983301;28;20041;-67
2023/12/02 07:13:45;;;;;;;10.32;4.15;;;-1.40;99.90;;;;;;4987292;28;20065;-67
2023/12/02 07:16:11;;;;;;;12.38;4.55;;;-1.40;99.90;;;;;;4980651;28;20486;-67
2023/12/02 07:18:38;;;;;;;9.27;4.40;;;-1.40;99.90;;;;;;4986746;28;20109;-67
2023/12/02 07:21:04;;;;;;;11.23;3.80;;;-1.30;99.90;;;;;;4982977;28;20032;-67
2023/12/02 07:23:31;;;;;;;10.93;4.40;;;-1.30;99.90;;;;;;4996140;28;20552;-68
2023/12/02 07:25:57;;;;;;;16.08;5.55;;;-1.30;99.90;;;;;;4988613;28;20034;-67
2023/12/02 07:28:24;;;;;;;10.73;5.10;;;-1.40;99.90;;;;;;4989841;28;20525;-67
2023/12/02 07:30:50;;;;;;;12.20;5.50;;;-1.30;99.90;;;;;;4988817;28;20037;-67
2023/12/02 07:33:19;;;;;;;17.67;5.05;;;-1.30;99.90;;;;;;4980421;28;20034;-67
2023/12/02 07:35:45;;;;;;;12.57;4.80;;;-1.30;99.90;;;;;;4982090;28;20507;-67
2023/12/02 07:38:11;;;;;;;12.70;5.47;;;-1.20;99.90;;;;;;4983339;28;20027;-67
2023/12/02 07:40:37;;;;;;;15.13;5.40;;;-1.20;99.90;;;;;;4985793;28;20126;-68
2023/12/02 07:43:03;;;;;;;14.20;4.80;;;-1.20;99.90;;;;;;4977850;28;20027;-68
2023/12/02 07:45:29;;;;;;;14.23;5.88;;;-1.10;99.90;;;;;;4987344;28;20081;-68
2023/12/02 07:47:55;;;;;;;13.75;5.40;;;-1.00;99.90;;;;;;4981020;28;20030;-67
2023/12/02 07:50:21;;;;;;;18.95;6.10;;;-1.10;99.90;;;;;;4987005;28;20037;-68
2023/12/02 07:52:47;;;;;;;19.00;6.93;;;-1.00;99.90;;;;;;4964758;28;20031;-67
2023/12/02 07:55:13;;;;;;;16.55;5.97;;;-1.00;99.90;;;;;;4988948;28;20042;-67
2023/12/02 07:57:39;;;;;;;14.05;5.43;;;-1.00;99.90;;;;;;4977923;28;20041;-67
2023/12/02 08:00:07;;;;;;;17.30;6.78;;;-0.90;99.90;;;;;;4986976;28;20031;-66
2023/12/02 08:02:39;;;;;;;18.02;7.13;;;-0.90;99.90;;;;;;4977844;28;20034;-68
2023/12/02 08:05:05;;;;;;;16.33;6.97;;;-0.80;99.90;;;;;;4987344;28;20073;-68
2023/12/02 08:07:31;;;;;;;15.32;5.68;;;-0.70;99.90;;;;;;4984931;28;20125;-65
2023/12/02 08:09:57;;;;;;;18.05;6.13;;;-0.70;99.90;;;;;;4993081;28;20129;-68
2023/12/02 08:12:23;;;;;;;14.57;5.88;;;-0.60;99.90;;;;;;4992985;28;20034;-68
2023/12/02 08:14:49;;;;;;;16.42;6.18;;;-0.50;99.90;;;;;;4988859;28;20065;-68
2023/12/02 08:17:15;;;;;;;18.77;6.95;;;-0.50;99.90;;;;;;4998552;28;20125;-68
2023/12/02 08:19:40;;;;;;;13.90;5.65;;;-0.50;99.90;;;;;;4987357;28;20040;-68
2023/12/02 08:22:06;;;;;;;12.98;5.45;;;-0.40;99.90;;;;;;4992665;28;20825;-68
2023/12/02 08:24:32;;;;;;;14.00;5.38;;;-0.40;99.90;;;;;;4992954;28;20038;-68
2023/12/02 08:27:01;;;;;;;15.00;5.82;;;-0.30;99.90;;;;;;4998523;28;20029;-68
2023/12/02 08:29:27;;;;;;;24.25;7.68;;;-0.30;99.90;;;;;;4988725;28;20053;-68
2023/12/02 08:31:53;;;;;;;19.15;7.53;;;-0.30;99.90;;;;;;4983403;28;20493;-68
2023/12/02 08:34:18;;;;;;;20.25;8.27;;;-0.20;99.90;;;;;;4989510;28;20116;-68
2023/12/02 08:36:44;;;;;;;23.10;7.18;;;-0.20;99.90;;;;;;4992638;28;20146;-68
2023/12/02 08:39:10;;;;;;;22.80;8.20;;;-0.10;99.90;;;;;;4997049;28;20026;-68
2023/12/02 08:41:36;;;;;;;21.00;6.95;;;-0.10;99.90;;;;;;4995278;28;20037;-68
2023/12/02 08:44:02;;;;;;;20.80;8.77;;;-0.10;99.90;;;;;;4985179;28;20085;-68
2023/12/02 08:46:28;;;;;;;18.17;7.25;;;0.00;99.90;;;;;;4992212;28;20031;-68
2023/12/02 08:48:54;;;;;;;17.35;6.88;;;0.10;99.90;;;;;;4984809;28;20084;-69
2023/12/02 08:51:21;;;;;;;20.88;7.50;;;0.10;99.90;;;;;;4984990;28;20041;-68
2023/12/02 08:53:51;;;;;;;20.60;6.30;;;0.20;99.90;;;;;;4982140;28;20042;-69
2023/12/02 08:56:17;;;;;;;17.58;7.13;;;0.20;99.90;;;;;;4994524;28;20038;-69
2023/12/02 08:58:43;;;;;;;20.92;7.28;;;0.20;99.90;;;;;;4985355;28;20451;-68
2023/12/02 09:01:09;;;;;;;19.88;7.10;;;0.30;99.90;;;;;;4993247;28;20026;-69
2023/12/02 09:03:35;;;;;;;17.25;6.82;;;0.40;99.90;;;;;;4983897;28;20057;-68
2023/12/02 09:06:00;;;;;;;18.23;7.88;;;0.50;99.90;;;;;;4997321;28;20858;-68
2023/12/02 09:08:26;;;;;;;21.02;9.23;;;0.50;99.90;;;;;;4986995;28;20053;-68
2023/12/02 09:10:52;;;;;;;17.02;7.75;;;0.50;99.90;;;;;;4996920;28;20474;-69
2023/12/02 09:13:39;;;;;;;14.23;7.70;;;0.40;99.90;;;;;;4993891;28;20037;-68
2023/12/02 09:16:09;;;;;;;14.43;7.70;;;0.50;99.90;;;;;;4993357;28;20537;-68
2023/12/02 09:18:37;;;;;;;14.80;8.20;;;0.50;99.90;;;;;;4989856;28;20038;-68
2023/12/02 09:21:03;;;;;;;14.35;7.55;;;0.40;99.90;;;;;;5000361;28;20041;-69
2023/12/02 09:23:29;;;;;;;15.15;6.15;;;0.40;99.90;;;;;;4988554;28;20458;-69
2023/12/02 09:26:04;;;;;;;11.02;5.78;;;0.40;99.90;;;;;;4990144;28;20050;-68
2023/12/02 09:28:32;;;;;;;13.10;7.60;;;0.40;99.90;;;;;;4984413;28;20050;-69
2023/12/02 09:31:06;;;;;;;27.55;15.52;;;0.50;99.90;;;;;;5002128;28;20123;-69
2023/12/02 09:33:32;;;;;;;23.02;12.93;;;0.60;99.90;;;;;;4990904;28;20044;-69
2023/12/02 09:36:03;;;;;;;17.20;9.07;;;0.60;99.90;;;;;;4997832;28;20101;-69
2023/12/02 09:38:29;;;;;;;16.00;6.95;;;0.60;99.90;;;;;;4994961;28;20072;-69
2023/12/02 09:41:00;;;;;;;13.82;6.80;;;0.70;99.90;;;;;;4993745;28;20494;-69
2023/12/02 09:43:39;;;;;;;13.85;6.60;;;0.70;99.90;;;;;;4988652;28;20033;-71
2023/12/02 09:46:08;;;;;;;14.07;6.70;;;0.70;99.90;;;;;;4996359;28;20088;-68
2023/12/02 09:48:50;;;;;;;12.98;6.05;;;0.70;99.90;;;;;;4992420;28;20049;-67
2023/12/02 09:51:16;;;;;;;15.10;6.15;;;0.70;99.90;;;;;;4992102;28;20030;-67
2023/12/02 09:53:54;;;;;;;19.05;8.77;;;0.70;99.90;;;;;;4981846;28;20034;-67
2023/12/02 09:56:24;;;;;;;22.48;9.85;;;0.80;99.90;;;;;;4990046;28;20057;-67
2023/12/02 09:58:59;;;;;;;15.40;7.60;;;0.80;99.90;;;;;;4982431;28;20077;-67
2023/12/02 10:01:42;;;;;;;26.45;8.30;;;0.80;99.90;;;;;;4986761;28;20033;-67
2023/12/02 10:04:29;;;;;;;23.25;8.80;;;0.80;99.90;;;;;;4982587;28;20037;-68
2023/12/02 10:07:09;;;;;;;33.40;10.73;;;0.80;99.90;;;;;;4985596;28;20050;-68
2023/12/02 10:10:17;;;;;;;14.82;6.88;;;0.80;99.90;;;;;;4979526;28;20137;-68
2023/12/02 10:12:57;;;;;;;82.03;17.55;;;0.90;99.90;;;;;;4924752;29;20122;-68
2023/12/02 10:15:28;;;;;;;18.50;8.27;;;0.80;99.90;;;;;;4977944;28;20540;-68
2023/12/02 10:18:09;;;;;;;18.45;7.38;;;0.80;99.90;;;;;;4986876;28;20035;-67
2023/12/02 10:20:38;;;;;;;62.70;16.65;;;0.70;99.90;;;;;;4985041;28;20045;-68
2023/12/02 10:23:15;;;;;;;32.85;11.25;;;0.80;99.90;;;;;;4986034;28;20039;-67
2023/12/02 10:25:47;;;;;;;30.65;11.15;;;0.80;99.90;;;;;;4983702;28;20515;-68
2023/12/02 10:28:32;;;;;;;30.33;15.38;;;0.90;99.90;;;;;;4985557;28;20034;-67
2023/12/02 10:31:04;;;;;;;35.92;11.88;;;0.90;99.90;;;;;;4981484;28;20427;-68
2023/12/02 10:34:00;;;;;;;20.48;8.57;;;1.00;99.90;;;;;;4985467;28;20391;-67
2023/12/02 10:36:28;;;;;;;18.92;7.78;;;1.00;99.90;;;;;;4987315;28;20080;-68
2023/12/02 10:39:09;;;;;;;36.30;12.98;;;1.00;99.90;;;;;;4981785;28;20035;-68
2023/12/02 10:42:03;;;;;;;43.10;12.02;;;1.00;99.90;;;;;;4988938;28;20372;-68
2023/12/02 10:44:33;;;;;;;20.85;7.85;;;1.00;99.90;;;;;;4994604;28;20041;-70
2023/12/02 10:47:00;;;;;;;33.42;10.68;;;1.00;99.90;;;;;;4990841;28;20395;-67
2023/12/02 10:49:30;;;;;;;16.63;7.78;;;0.80;99.90;;;;;;4985164;28;20360;-68
2023/12/02 10:51:59;;;;;;;26.70;8.20;;;0.80;99.90;;;;;;4988990;28;20833;-68
2023/12/02 10:54:31;;;;;;;43.53;11.80;;;0.80;99.90;;;;;;4989614;28;20085;-68
2023/12/02 10:57:08;;;;;;;18.80;7.35;;;0.80;99.90;;;;;;4986472;28;20723;-66
2023/12/02 10:59:40;;;;;;;19.85;7.43;;;0.80;99.90;;;;;;4980137;28;20081;-69
2023/12/02 11:02:24;;;;;;;18.85;7.13;;;0.80;99.90;;;;;;4989310;28;20030;-69
2023/12/02 11:05:03;;;;;;;15.40;7.05;;;0.80;99.90;;;;;;4978994;28;20039;-70
2023/12/02 11:07:32;;;;;;;17.85;7.80;;;0.80;99.90;;;;;;4985739;28;20038;-69
2023/12/02 11:10:05;;;;;;;24.17;7.97;;;0.90;99.90;;;;;;4978596;28;20517;-70
2023/12/02 11:12:50;;;;;;;18.27;7.28;;;0.80;99.90;;;;;;4988984;28;20495;-70
2023/12/02 11:15:22;;;;;;;16.65;7.68;;;0.90;99.90;;;;;;4983302;28;20852;-70
2023/12/02 11:17:51;;;;;;;20.42;8.27;;;0.90;99.90;;;;;;4985692;28;20434;-69
2023/12/02 11:20:47;;;;;;;14.57;6.85;;;0.90;99.90;;;;;;4982855;28;20145;-67
2023/12/02 11:23:36;;;;;;;14.90;6.32;;;0.90;99.90;;;;;;4987038;28;20034;-69
2023/12/02 11:26:11;;;;;;;17.65;7.07;;;0.90;99.90;;;;;;4980906;28;20671;-69
2023/12/02 11:28:49;;;;;;;27.52;10.68;;;0.80;99.90;;;;;;4982815;28;20030;-70
2023/12/02 11:31:40;;;;;;;19.20;7.38;;;0.80;99.90;;;;;;4980754;28;20099;-70
2023/12/02 11:34:24;;;;;;;23.75;8.45;;;0.90;99.90;;;;;;4983918;28;20041;-66
2023/12/02 11:37:11;;;;;;;17.48;7.80;;;0.90;99.90;;;;;;4979774;28;20096;-67
2023/12/02 11:40:13;;;;;;;16.20;6.78;;;0.90;99.90;;;;;;4979916;28;20030;-69
2023/12/02 11:42:56;;;;;;;22.60;7.60;;;0.80;99.90;;;;;;4987526;28;20169;-69
2023/12/02 11:45:46;;;;;;;18.48;7.47;;;0.80;99.90;;;;;;4985573;28;20034;-73
2023/12/02 11:48:31;;;;;;;18.10;7.32;;;0.70;99.90;;;;;;4994247;28;20038;-75
2023/12/02 11:51:08;;;;;;;18.55;8.32;;;0.70;99.90;;;;;;4982760;28;20046;-74
2023/12/02 11:53:55;;;;;;;13.88;6.90;;;0.60;99.90;;;;;;4992643;28;20072;-73
2023/12/02 11:56:22;;;;;;;17.27;7.43;;;0.60;99.90;;;;;;4980737;28;20038;-73
2023/12/02 11:59:07;;;;;;;21.73;8.20;;;0.60;99.90;;;;;;4987892;28;20037;-69
2023/12/02 12:01:57;;;;;;;15.35;6.82;;;0.60;99.90;;;;;;4981337;28;20398;-72
2023/12/02 12:05:00;;;;;;;16.90;8.30;;;0.60;99.90;;;;;;4981511;28;20053;-72
2023/12/02 12:07:32;;;;;;;22.10;8.30;;;0.50;99.90;;;;;;4987683;28;20065;-74
2023/12/02 12:10:22;;;;;;;15.45;7.03;;;0.60;99.90;;;;;;4986229;28;20065;-74
2023/12/02 12:12:51;;;;;;;12.70;6.20;;;0.60;99.90;;;;;;4990289;28;20068;-72
2023/12/02 12:15:16;;;;;;;11.52;5.72;;;0.60;99.90;;;;;;4982562;28;20442;-73
2023/12/02 12:17:42;;;;;;;12.95;5.93;;;0.60;99.90;;;;;;4986055;28;20037;-72
2023/12/02 12:20:18;;;;;;;13.95;7.10;;;0.60;99.90;;;;;;4985378;28;20822;-67
2023/12/02 12:22:44;;;;;;;;;;;0.60;99.90;;;;;;4987162;28;20073;-69
2023/12/02 12:25:10;;;;;;;17.20;6.53;;;0.60;99.90;;;;;;4983702;28;19909;-67
2023/12/02 12:27:36;;;;;;;17.90;7.00;;;0.60;99.90;;;;;;4985682;28;20049;-69
2023/12/02 12:30:02;;;;;;;18.80;6.60;;;0.60;99.90;;;;;;4980499;28;20039;-68
2023/12/02 12:32:28;;;;;;;13.93;6.57;;;0.60;99.90;;;;;;4986037;28;20120;-69
2023/12/02 12:34:54;;;;;;;15.10;6.72;;;0.70;99.90;;;;;;4980499;28;20066;-69
2023/12/02 12:37:21;;;;;;;13.57;6.43;;;0.80;99.90;;;;;;4986833;28;20096;-68
2023/12/02 12:39:47;;;;;;;13.50;6.63;;;0.80;99.90;;;;;;4982413;28;20026;-69
2023/12/02 12:42:16;;;;;;;12.50;6.25;;;0.80;99.90;;;;;;4985603;28;20035;-69
2023/12/02 12:44:44;;;;;;;15.65;6.10;;;0.70;99.90;;;;;;4981351;28;20550;-69
2023/12/02 12:47:11;;;;;;;15.80;7.18;;;0.70;99.90;;;;;;4981864;28;20034;-69
2023/12/02 12:49:42;;;;;;;16.35;7.63;;;0.80;99.90;;;;;;4991564;28;20030;-68